This demonstration page uses our WeatherBlox Daily Observations layout. Learn more.

38.89511, -77.03637

Hourly Observations for April 18, 2017

Temp ( °F °C ) Dew Point ( °F °C ) Humidity (%) Winds ( mph kmh ) Pressure ( in mb ) Visibility ( mi km ) Precip ( " mm )
12:52 am 00:52 Mostly Clear 60 15.6 55 12.8 84 84 NNW 5 7 30.15 1021 10 16.09344 0 0
1:52 am 01:52 Mostly Cloudy 61 16.1 51 10.6 70 70 NNW 6 9 30.15 1021 10 16.09344 0 0
2:52 am 02:52 Cloudy 60 15.6 43 6.1 53 53 NNE 7 11 30.18 1022 10 16.09344 0 0
3:52 am 03:52 Cloudy 60 15.6 43 6.1 53 53 NNE 9 15 30.18 1022 10 16.09344 0 0
4:52 am 04:52 Mostly Cloudy 59 15 41 5 51 51 NNE 7 11 30.21 1023 10 16.09344 0 0
5:52 am 05:52 Mostly Cloudy 57 13.9 43 6.1 60 60 NE 8 13 30.24 1024 10 16.09344 0 0
6:52 am 06:52 Mostly Cloudy 57 13.9 43 6.1 60 60 NE 7 11 30.27 1025 10 16.09344 0 0
7:52 am 07:52 Mostly Cloudy 59 15 41 5 51 51 ENE 7 11 30.3 1026 10 16.09344 0 0
8:52 am 08:52 Mostly Cloudy 62 16.7 42 5.6 48 48 NE 9 15 30.33 1027 10 16.09344 0 0
9:52 am 09:52 Partly Cloudy 64 17.8 42 5.6 45 45 ENE 7 11 30.33 1027 10 16.09344 0 0
10:52 am 10:52 Partly Cloudy 67 19.4 43 6.1 42 42 ENE 6 9 30.36 1028 10 16.09344 0 0
11:52 am 11:52 Mostly Sunny 68 20 41 5 38 38 N 3 6 30.36 1028 10 16.09344 0 0
12:52 pm 12:52 Mostly Sunny 70 21.1 40 4.4 34 34 N 3 6 30.33 1027 10 16.09344 0 0
1:52 pm 13:52 Partly Cloudy 72 22.2 40 4.4 31 31 NNW 6 9 30.33 1027 10 16.09344 0 0
2:52 pm 14:52 Partly Cloudy 70 21.1 40 4.4 34 34 Calm 30.3 1026 10 16.09344 0 0
3:52 pm 15:52 Partly Cloudy 71 21.7 42 5.6 35 35 SE 9 15 30.3 1026 10 16.09344 0 0
4:52 pm 16:52 Partly Cloudy 71 21.7 42 5.6 35 35 SE 8 13 30.3 1026 10 16.09344 0 0
5:52 pm 17:52 Partly Cloudy 70 21.1 41 5 35 35 ESE 14 22 30.3 1026 10 16.09344 0 0
6:52 pm 18:52 Mostly Cloudy 68 20 40 4.4 36 36 SE 12 19 30.3 1026 10 16.09344 0 0
7:52 pm 19:52 Mostly Cloudy 65 18.3 45 7.2 49 49 SSE 15 24 30.33 1027 10 16.09344 0 0
8:52 pm 20:52 Mostly Cloudy 61 16.1 44 6.7 54 54 SSE 17 28 30.36 1028 10 16.09344 0 0
9:52 pm 21:52 Mostly Cloudy 58 14.4 41 5 53 53 SSE 14 22 30.39 1029 10 16.09344 0 0
10:52 pm 22:52 Partly Cloudy 57 13.9 41 5 55 55 S 12 19 30.42 1030 10 16.09344 0 0
11:52 pm 23:52 Clear 56 13.3 42 5.6 60 60 SSE 10 17 30.39 1029 10 16.09344 0 0

Powered by AerisWeather